sensor_id;sensor_type;location;lat;lon;timestamp;pressure;altitude;pressure_sealevel;temperature;humidity
2711;BME280;20721;47.402;8.550;2023-05-23T00:00:27;95951;;;20.15;59.04
2711;BME280;20721;47.402;8.550;2023-05-23T00:01:27;95951;;;20.22;58.96
2711;BME280;20721;47.402;8.550;2023-05-23T00:02:27;95948;;;20.28;58.85
2711;BME280;20721;47.402;8.550;2023-05-23T00:03:27;95950;;;20.29;58.77
2711;BME280;20721;47.402;8.550;2023-05-23T00:04:27;95950;;;20.27;58.77
2711;BME280;20721;47.402;8.550;2023-05-23T00:05:28;95948;;;20.29;58.69
2711;BME280;20721;47.402;8.550;2023-05-23T00:06:26;95950;;;20.34;58.67
2711;BME280;20721;47.402;8.550;2023-05-23T00:07:26;95949;;;20.33;58.62
2711;BME280;20721;47.402;8.550;2023-05-23T00:08:26;95952;;;20.36;58.84
2711;BME280;20721;47.402;8.550;2023-05-23T00:09:26;95954;;;20.33;58.90
2711;BME280;20721;47.402;8.550;2023-05-23T00:10:26;95951;;;20.30;59.24
2711;BME280;20721;47.402;8.550;2023-05-23T00:11:28;95951;;;20.28;59.40
2711;BME280;20721;47.402;8.550;2023-05-23T00:13:26;95951;;;20.30;59.47
2711;BME280;20721;47.402;8.550;2023-05-23T00:14:26;95951;;;20.34;59.39
2711;BME280;20721;47.402;8.550;2023-05-23T00:15:26;95950;;;20.38;59.30
2711;BME280;20721;47.402;8.550;2023-05-23T00:16:26;95952;;;20.41;59.34
2711;BME280;20721;47.402;8.550;2023-05-23T00:17:26;95950;;;20.43;59.23
2711;BME280;20721;47.402;8.550;2023-05-23T00:18:26;95949;;;20.45;59.14
2711;BME280;20721;47.402;8.550;2023-05-23T00:19:26;95949;;;20.48;59.10
2711;BME280;20721;47.402;8.550;2023-05-23T00:20:27;95949;;;20.50;58.91
2711;BME280;20721;47.402;8.550;2023-05-23T00:21:29;95947;;;20.52;58.75
2711;BME280;20721;47.402;8.550;2023-05-23T00:23:28;95945;;;20.50;58.48
2711;BME280;20721;47.402;8.550;2023-05-23T00:24:26;95945;;;20.49;58.55
2711;BME280;20721;47.402;8.550;2023-05-23T00:26:29;95946;;;20.47;58.27
2711;BME280;20721;47.402;8.550;2023-05-23T00:27:26;95949;;;20.42;58.35
2711;BME280;20721;47.402;8.550;2023-05-23T00:28:26;95949;;;20.27;58.63
2711;BME280;20721;47.402;8.550;2023-05-23T00:29:26;95948;;;20.23;58.77
2711;BME280;20721;47.402;8.550;2023-05-23T00:30:28;95947;;;20.21;58.85
2711;BME280;20721;47.402;8.550;2023-05-23T00:31:26;95946;;;20.20;59.02
2711;BME280;20721;47.402;8.550;2023-05-23T00:32:26;95945;;;20.18;59.04
2711;BME280;20721;47.402;8.550;2023-05-23T00:33:28;95947;;;20.17;59.03
2711;BME280;20721;47.402;8.550;2023-05-23T00:34:26;95948;;;20.19;59.03
2711;BME280;20721;47.402;8.550;2023-05-23T00:35:26;95946;;;20.22;59.01
2711;BME280;20721;47.402;8.550;2023-05-23T00:36:26;95948;;;20.20;59.01
2711;BME280;20721;47.402;8.550;2023-05-23T00:37:27;95947;;;20.21;58.98
2711;BME280;20721;47.402;8.550;2023-05-23T00:38:27;95947;;;20.22;58.96
2711;BME280;20721;47.402;8.550;2023-05-23T00:39:26;95948;;;20.24;58.81
2711;BME280;20721;47.402;8.550;2023-05-23T00:40:26;95946;;;20.23;58.78
2711;BME280;20721;47.402;8.550;2023-05-23T00:41:29;95949;;;20.22;58.85
2711;BME280;20721;47.402;8.550;2023-05-23T00:42:26;95950;;;20.21;58.81
2711;BME280;20721;47.402;8.550;2023-05-23T00:43:26;95948;;;20.19;58.83
2711;BME280;20721;47.402;8.550;2023-05-23T00:45:26;95950;;;20.18;58.75
2711;BME280;20721;47.402;8.550;2023-05-23T00:46:27;95952;;;20.16;58.70
2711;BME280;20721;47.402;8.550;2023-05-23T00:48:26;95948;;;20.14;58.87
2711;BME280;20721;47.402;8.550;2023-05-23T00:49:27;95947;;;20.11;59.02
2711;BME280;20721;47.402;8.550;2023-05-23T00:50:29;95950;;;20.09;59.06
2711;BME280;20721;47.402;8.550;2023-05-23T00:51:26;95946;;;20.06;59.11
2711;BME280;20721;47.402;8.550;2023-05-23T00:52:26;95946;;;20.04;59.02
2711;BME280;20721;47.402;8.550;2023-05-23T00:53:26;95948;;;20.02;59.05
2711;BME280;20721;47.402;8.550;2023-05-23T00:54:27;95949;;;20.01;59.08
2711;BME280;20721;47.402;8.550;2023-05-23T00:55:27;95949;;;20.02;59.11
2711;BME280;20721;47.402;8.550;2023-05-23T00:56:27;95950;;;20.00;59.03
2711;BME280;20721;47.402;8.550;2023-05-23T00:57:27;95951;;;20.01;59.08
2711;BME280;20721;47.402;8.550;2023-05-23T00:58:26;95950;;;19.98;59.12
2711;BME280;20721;47.402;8.550;2023-05-23T00:59:26;95952;;;19.95;59.17
2711;BME280;20721;47.402;8.550;2023-05-23T01:00:27;95952;;;19.93;59.18
2711;BME280;20721;47.402;8.550;2023-05-23T01:01:27;95954;;;19.90;59.10
2711;BME280;20721;47.402;8.550;2023-05-23T01:02:27;95951;;;19.85;59.22
2711;BME280;20721;47.402;8.550;2023-05-23T01:03:27;95955;;;19.82;59.38
2711;BME280;20721;47.402;8.550;2023-05-23T01:04:27;95952;;;19.79;59.55
2711;BME280;20721;47.402;8.550;2023-05-23T01:05:26;95951;;;19.77;59.64
2711;BME280;20721;47.402;8.550;2023-05-23T01:06:29;95948;;;19.74;59.79
2711;BME280;20721;47.402;8.550;2023-05-23T01:07:26;95944;;;19.69;59.90
2711;BME280;20721;47.402;8.550;2023-05-23T01:08:27;95943;;;19.66;60.12
2711;BME280;20721;47.402;8.550;2023-05-23T01:09:27;95943;;;19.62;60.18
2711;BME280;20721;47.402;8.550;2023-05-23T01:10:27;95944;;;19.52;60.43
2711;BME280;20721;47.402;8.550;2023-05-23T01:11:28;95942;;;19.48;60.57
2711;BME280;20721;47.402;8.550;2023-05-23T01:14:31;95946;;;19.48;60.58
2711;BME280;20721;47.402;8.550;2023-05-23T01:15:28;95945;;;19.50;60.60
2711;BME280;20721;47.402;8.550;2023-05-23T01:16:29;95944;;;19.54;60.51
2711;BME280;20721;47.402;8.550;2023-05-23T01:17:30;95945;;;19.58;60.29
2711;BME280;20721;47.402;8.550;2023-05-23T01:20:29;95940;;;19.65;60.10
2711;BME280;20721;47.402;8.550;2023-05-23T01:22:32;95941;;;19.59;60.12
2711;BME280;20721;47.402;8.550;2023-05-23T01:26:30;95943;;;19.46;60.51
2711;BME280;20721;47.402;8.550;2023-05-23T01:28:28;95948;;;19.51;60.34
2711;BME280;20721;47.402;8.550;2023-05-23T01:29:28;95951;;;19.53;60.33
2711;BME280;20721;47.402;8.550;2023-05-23T01:30:26;95950;;;19.54;60.29
2711;BME280;20721;47.402;8.550;2023-05-23T01:31:26;95950;;;19.57;60.08
2711;BME280;20721;47.402;8.550;2023-05-23T01:32:27;95951;;;19.61;59.98
2711;BME280;20721;47.402;8.550;2023-05-23T01:33:26;95950;;;19.63;59.99
2711;BME280;20721;47.402;8.550;2023-05-23T01:34:27;95952;;;19.65;59.96
2711;BME280;20721;47.402;8.550;2023-05-23T01:35:26;95954;;;19.67;59.84
2711;BME280;20721;47.402;8.550;2023-05-23T01:36:26;95954;;;19.68;59.84
2711;BME280;20721;47.402;8.550;2023-05-23T01:37:28;95955;;;19.67;59.82
2711;BME280;20721;47.402;8.550;2023-05-23T01:38:26;95958;;;19.69;59.60
2711;BME280;20721;47.402;8.550;2023-05-23T01:39:26;95959;;;19.70;59.62
2711;BME280;20721;47.402;8.550;2023-05-23T01:40:26;95962;;;19.72;59.56
2711;BME280;20721;47.402;8.550;2023-05-23T01:41:27;95962;;;19.73;59.52
2711;BME280;20721;47.402;8.550;2023-05-23T01:42:27;95963;;;19.71;59.59
2711;BME280;20721;47.402;8.550;2023-05-23T01:43:26;95965;;;19.69;59.58
2711;BME280;20721;47.402;8.550;2023-05-23T01:44:27;95964;;;19.65;59.71
2711;BME280;20721;47.402;8.550;2023-05-23T01:45:27;95963;;;19.64;59.61
2711;BME280;20721;47.402;8.550;2023-05-23T01:46:27;95966;;;19.62;59.71
2711;BME280;20721;47.402;8.550;2023-05-23T01:47:27;95966;;;19.63;59.75
2711;BME280;20721;47.402;8.550;2023-05-23T01:49:26;95959;;;19.64;59.71
2711;BME280;20721;47.402;8.550;2023-05-23T01:53:27;95960;;;19.66;59.61
2711;BME280;20721;47.402;8.550;2023-05-23T01:54:28;95958;;;19.68;59.59
2711;BME280;20721;47.402;8.550;2023-05-23T01:57:28;95960;;;19.67;59.64
2711;BME280;20721;47.402;8.550;2023-05-23T01:59:27;95957;;;19.68;59.63
2711;BME280;20721;47.402;8.550;2023-05-23T02:00:27;95956;;;19.67;59.59
2711;BME280;20721;47.402;8.550;2023-05-23T02:02:27;95959;;;19.61;59.70
2711;BME280;20721;47.402;8.550;2023-05-23T02:03:27;95957;;;19.47;59.92
2711;BME280;20721;47.402;8.550;2023-05-23T02:04:27;95957;;;19.36;60.14
2711;BME280;20721;47.402;8.550;2023-05-23T02:05:27;95957;;;19.26;60.35
2711;BME280;20721;47.402;8.550;2023-05-23T02:06:27;95959;;;19.21;60.49
2711;BME280;20721;47.402;8.550;2023-05-23T02:07:27;95962;;;19.18;60.57
2711;BME280;20721;47.402;8.550;2023-05-23T02:08:27;95960;;;19.15;60.65
2711;BME280;20721;47.402;8.550;2023-05-23T02:09:27;95962;;;19.14;60.76
2711;BME280;20721;47.402;8.550;2023-05-23T02:10:27;95965;;;19.17;60.83
2711;BME280;20721;47.402;8.550;2023-05-23T02:11:27;95967;;;19.19;60.78
2711;BME280;20721;47.402;8.550;2023-05-23T02:12:27;95966;;;19.23;60.69
2711;BME280;20721;47.402;8.550;2023-05-23T02:13:27;95966;;;19.25;60.75
2711;BME280;20721;47.402;8.550;2023-05-23T02:14:27;95968;;;19.28;60.65
2711;BME280;20721;47.402;8.550;2023-05-23T02:15:27;95969;;;19.31;60.59
2711;BME280;20721;47.402;8.550;2023-05-23T02:16:27;95968;;;19.32;60.57
2711;BME280;20721;47.402;8.550;2023-05-23T02:18:28;95967;;;19.33;60.41
2711;BME280;20721;47.402;8.550;2023-05-23T02:19:27;95967;;;19.34;60.38
2711;BME280;20721;47.402;8.550;2023-05-23T02:20:27;95971;;;19.36;60.29
2711;BME280;20721;47.402;8.550;2023-05-23T02:21:27;95972;;;19.37;60.30
2711;BME280;20721;47.402;8.550;2023-05-23T02:22:27;95969;;;19.38;60.32
2711;BME280;20721;47.402;8.550;2023-05-23T02:24:27;95969;;;19.39;60.52
2711;BME280;20721;47.402;8.550;2023-05-23T02:25:27;95974;;;19.40;60.44
2711;BME280;20721;47.402;8.550;2023-05-23T02:26:27;95970;;;19.41;60.46
2711;BME280;20721;47.402;8.550;2023-05-23T02:27:27;95969;;;19.43;60.32
2711;BME280;20721;47.402;8.550;2023-05-23T02:29:27;95971;;;19.41;60.46
2711;BME280;20721;47.402;8.550;2023-05-23T02:31:27;95976;;;19.39;60.55
2711;BME280;20721;47.402;8.550;2023-05-23T02:32:28;95971;;;19.36;60.62
2711;BME280;20721;47.402;8.550;2023-05-23T02:33:27;95973;;;19.35;60.63
2711;BME280;20721;47.402;8.550;2023-05-23T02:34:27;95972;;;19.34;60.61
2711;BME280;20721;47.402;8.550;2023-05-23T02:35:27;95972;;;19.35;60.53
2711;BME280;20721;47.402;8.550;2023-05-23T02:37:27;95974;;;19.30;60.60
2711;BME280;20721;47.402;8.550;2023-05-23T02:38:28;95973;;;19.28;60.51
2711;BME280;20721;47.402;8.550;2023-05-23T02:39:27;95973;;;19.26;60.47
2711;BME280;20721;47.402;8.550;2023-05-23T02:40:27;95971;;;19.23;60.48
2711;BME280;20721;47.402;8.550;2023-05-23T02:41:27;95970;;;19.14;60.64
2711;BME280;20721;47.402;8.550;2023-05-23T02:42:27;95973;;;19.10;60.81
2711;BME280;20721;47.402;8.550;2023-05-23T02:43:27;95975;;;19.07;60.98
2711;BME280;20721;47.402;8.550;2023-05-23T02:44:27;95972;;;19.08;61.09
2711;BME280;20721;47.402;8.550;2023-05-23T02:45:27;95973;;;19.10;61.13
2711;BME280;20721;47.402;8.550;2023-05-23T02:46:27;95978;;;19.12;61.13
2711;BME280;20721;47.402;8.550;2023-05-23T02:47:27;95974;;;19.15;61.21
2711;BME280;20721;47.402;8.550;2023-05-23T02:48:27;95974;;;19.18;61.17
2711;BME280;20721;47.402;8.550;2023-05-23T02:49:27;95975;;;19.22;60.97
2711;BME280;20721;47.402;8.550;2023-05-23T02:50:27;95971;;;19.24;60.96
2711;BME280;20721;47.402;8.550;2023-05-23T02:51:27;95971;;;19.27;60.92
2711;BME280;20721;47.402;8.550;2023-05-23T02:52:27;95969;;;19.29;60.74
2711;BME280;20721;47.402;8.550;2023-05-23T02:53:27;95974;;;19.28;60.69
2711;BME280;20721;47.402;8.550;2023-05-23T02:54:27;95975;;;19.24;60.83
2711;BME280;20721;47.402;8.550;2023-05-23T02:55:27;95976;;;19.21;60.87
2711;BME280;20721;47.402;8.550;2023-05-23T02:57:27;95982;;;19.22;60.86
2711;BME280;20721;47.402;8.550;2023-05-23T02:58:27;95982;;;19.23;60.90
2711;BME280;20721;47.402;8.550;2023-05-23T02:59:27;95983;;;19.25;60.85
2711;BME280;20721;47.402;8.550;2023-05-23T03:00:27;95984;;;19.26;60.90
2711;BME280;20721;47.402;8.550;2023-05-23T03:01:27;95985;;;19.29;60.79
2711;BME280;20721;47.402;8.550;2023-05-23T03:02:27;95983;;;19.32;60.75
2711;BME280;20721;47.402;8.550;2023-05-23T03:03:27;95983;;;19.33;60.65
2711;BME280;20721;47.402;8.550;2023-05-23T03:04:28;95982;;;19.35;60.62
2711;BME280;20721;47.402;8.550;2023-05-23T03:06:27;95980;;;19.32;60.53
2711;BME280;20721;47.402;8.550;2023-05-23T03:07:29;95983;;;19.30;60.62
2711;BME280;20721;47.402;8.550;2023-05-23T03:08:27;95982;;;19.28;60.70
2711;BME280;20721;47.402;8.550;2023-05-23T03:11:28;95983;;;19.29;60.89
2711;BME280;20721;47.402;8.550;2023-05-23T03:13:27;95984;;;19.31;60.87
2711;BME280;20721;47.402;8.550;2023-05-23T03:16:27;95987;;;19.32;60.92
2711;BME280;20721;47.402;8.550;2023-05-23T03:17:27;95984;;;19.31;60.92
2711;BME280;20721;47.402;8.550;2023-05-23T03:18:27;95986;;;19.30;61.00
2711;BME280;20721;47.402;8.550;2023-05-23T03:19:27;95985;;;19.29;61.08
2711;BME280;20721;47.402;8.550;2023-05-23T03:20:27;95985;;;19.31;61.09
2711;BME280;20721;47.402;8.550;2023-05-23T03:21:27;95987;;;19.30;61.08
2711;BME280;20721;47.402;8.550;2023-05-23T03:23:27;95987;;;19.28;61.13
2711;BME280;20721;47.402;8.550;2023-05-23T03:24:27;95987;;;19.27;61.16
2711;BME280;20721;47.402;8.550;2023-05-23T03:25:27;95984;;;19.26;61.31
2711;BME280;20721;47.402;8.550;2023-05-23T03:26:27;95991;;;19.28;61.01
2711;BME280;20721;47.402;8.550;2023-05-23T03:27:27;95989;;;19.30;61.10
2711;BME280;20721;47.402;8.550;2023-05-23T03:28:27;95990;;;19.29;61.00
2711;BME280;20721;47.402;8.550;2023-05-23T03:29:27;95992;;;19.30;60.91
2711;BME280;20721;47.402;8.550;2023-05-23T03:31:27;95991;;;19.29;60.96
2711;BME280;20721;47.402;8.550;2023-05-23T03:34:27;95995;;;19.30;60.78
2711;BME280;20721;47.402;8.550;2023-05-23T03:35:27;95994;;;19.29;60.69
2711;BME280;20721;47.402;8.550;2023-05-23T03:38:27;95998;;;19.31;60.63
2711;BME280;20721;47.402;8.550;2023-05-23T03:40:27;95995;;;19.32;60.37
2711;BME280;20721;47.402;8.550;2023-05-23T03:41:27;95994;;;19.31;60.45
2711;BME280;20721;47.402;8.550;2023-05-23T03:42:27;95998;;;19.30;60.48
2711;BME280;20721;47.402;8.550;2023-05-23T03:44:27;95995;;;19.31;60.46
2711;BME280;20721;47.402;8.550;2023-05-23T03:45:27;95995;;;19.30;60.35
2711;BME280;20721;47.402;8.550;2023-05-23T03:46:27;95996;;;19.31;60.25
2711;BME280;20721;47.402;8.550;2023-05-23T03:47:27;95995;;;19.32;60.17
2711;BME280;20721;47.402;8.550;2023-05-23T03:48:29;96000;;;19.34;60.09
2711;BME280;20721;47.402;8.550;2023-05-23T03:49:27;95996;;;19.33;60.09
2711;BME280;20721;47.402;8.550;2023-05-23T03:52:27;95998;;;19.36;59.75
2711;BME280;20721;47.402;8.550;2023-05-23T03:53:27;95997;;;19.37;59.79
2711;BME280;20721;47.402;8.550;2023-05-23T03:54:27;95998;;;19.35;59.76
2711;BME280;20721;47.402;8.550;2023-05-23T03:55:27;96003;;;19.34;59.87
2711;BME280;20721;47.402;8.550;2023-05-23T03:58:27;96007;;;19.35;59.91
2711;BME280;20721;47.402;8.550;2023-05-23T03:59:27;96009;;;19.32;59.89
2711;BME280;20721;47.402;8.550;2023-05-23T04:00:27;96007;;;19.29;60.00
2711;BME280;20721;47.402;8.550;2023-05-23T04:01:27;96009;;;19.27;60.12
2711;BME280;20721;47.402;8.550;2023-05-23T04:05:27;96010;;;19.26;60.09
2711;BME280;20721;47.402;8.550;2023-05-23T04:06:30;96017;;;19.25;60.15
2711;BME280;20721;47.402;8.550;2023-05-23T04:07:27;96013;;;19.26;60.12
2711;BME280;20721;47.402;8.550;2023-05-23T04:09:27;96015;;;19.29;60.05
2711;BME280;20721;47.402;8.550;2023-05-23T04:11:27;96013;;;19.26;60.24
2711;BME280;20721;47.402;8.550;2023-05-23T04:13:27;96015;;;19.23;60.66
2711;BME280;20721;47.402;8.550;2023-05-23T04:14:27;96022;;;19.14;60.80
2711;BME280;20721;47.402;8.550;2023-05-23T04:15:28;96017;;;19.05;61.18
2711;BME280;20721;47.402;8.550;2023-05-23T04:16:27;96019;;;19.00;61.42
2711;BME280;20721;47.402;8.550;2023-05-23T04:17:28;96017;;;19.03;61.34
2711;BME280;20721;47.402;8.550;2023-05-23T04:18:27;96021;;;19.06;61.30
2711;BME280;20721;47.402;8.550;2023-05-23T04:19:27;96025;;;19.09;61.13
2711;BME280;20721;47.402;8.550;2023-05-23T04:20:27;96021;;;19.11;61.12
2711;BME280;20721;47.402;8.550;2023-05-23T04:21:27;96026;;;19.13;61.18
2711;BME280;20721;47.402;8.550;2023-05-23T04:22:27;96022;;;19.15;61.10
2711;BME280;20721;47.402;8.550;2023-05-23T04:23:27;96022;;;19.18;61.13
2711;BME280;20721;47.402;8.550;2023-05-23T04:24:27;96021;;;19.22;61.02
2711;BME280;20721;47.402;8.550;2023-05-23T04:25:27;96025;;;19.26;60.91
2711;BME280;20721;47.402;8.550;2023-05-23T04:26:27;96024;;;19.29;60.72
2711;BME280;20721;47.402;8.550;2023-05-23T04:27:27;96023;;;19.31;60.72
2711;BME280;20721;47.402;8.550;2023-05-23T04:28:27;96028;;;19.30;60.72
2711;BME280;20721;47.402;8.550;2023-05-23T04:29:30;96027;;;19.32;60.65
2711;BME280;20721;47.402;8.550;2023-05-23T04:30:29;96028;;;19.34;60.54
2711;BME280;20721;47.402;8.550;2023-05-23T04:31:27;96026;;;19.35;60.49
2711;BME280;20721;47.402;8.550;2023-05-23T04:33:28;96032;;;19.38;60.43
2711;BME280;20721;47.402;8.550;2023-05-23T04:34:27;96031;;;19.40;60.44
2711;BME280;20721;47.402;8.550;2023-05-23T04:35:27;96031;;;19.41;60.49
2711;BME280;20721;47.402;8.550;2023-05-23T04:37:27;96031;;;19.43;60.42
2711;BME280;20721;47.402;8.550;2023-05-23T04:38:27;96032;;;19.45;60.39
2711;BME280;20721;47.402;8.550;2023-05-23T04:39:28;96029;;;19.48;60.35
2711;BME280;20721;47.402;8.550;2023-05-23T04:40:27;96029;;;19.51;60.22
2711;BME280;20721;47.402;8.550;2023-05-23T04:41:27;96029;;;19.54;60.17
2711;BME280;20721;47.402;8.550;2023-05-23T04:42:28;96027;;;19.55;60.11
2711;BME280;20721;47.402;8.550;2023-05-23T04:43:28;96029;;;19.57;59.94
2711;BME280;20721;47.402;8.550;2023-05-23T04:45:27;96033;;;19.60;59.47
2711;BME280;20721;47.402;8.550;2023-05-23T04:46:27;96034;;;19.59;59.40
2711;BME280;20721;47.402;8.550;2023-05-23T04:47:28;96033;;;19.58;59.50
2711;BME280;20721;47.402;8.550;2023-05-23T04:49:28;96032;;;19.61;59.62
2711;BME280;20721;47.402;8.550;2023-05-23T04:50:30;96037;;;19.64;59.42
2711;BME280;20721;47.402;8.550;2023-05-23T04:52:28;96035;;;19.66;59.49
2711;BME280;20721;47.402;8.550;2023-05-23T04:53:27;96036;;;19.68;59.32
2711;BME280;20721;47.402;8.550;2023-05-23T04:55:27;96035;;;19.67;59.47
2711;BME280;20721;47.402;8.550;2023-05-23T04:56:27;96036;;;19.65;59.54
2711;BME280;20721;47.402;8.550;2023-05-23T04:58:27;96036;;;19.64;59.65
2711;BME280;20721;47.402;8.550;2023-05-23T04:59:27;96037;;;19.62;59.71
2711;BME280;20721;47.402;8.550;2023-05-23T05:00:29;96037;;;19.63;59.87
2711;BME280;20721;47.402;8.550;2023-05-23T05:02:32;96042;;;19.65;59.80
2711;BME280;20721;47.402;8.550;2023-05-23T05:03:27;96040;;;19.66;59.79
2711;BME280;20721;47.402;8.550;2023-05-23T05:04:27;96042;;;19.67;59.62
2711;BME280;20721;47.402;8.550;2023-05-23T05:05:27;96043;;;19.70;59.58
2711;BME280;20721;47.402;8.550;2023-05-23T05:06:27;96044;;;19.71;59.14
2711;BME280;20721;47.402;8.550;2023-05-23T05:07:28;96045;;;19.72;59.12
2711;BME280;20721;47.402;8.550;2023-05-23T05:09:27;96046;;;19.74;59.03
2711;BME280;20721;47.402;8.550;2023-05-23T05:10:27;96045;;;19.76;59.04
2711;BME280;20721;47.402;8.550;2023-05-23T05:12:27;96045;;;19.77;59.07
2711;BME280;20721;47.402;8.550;2023-05-23T05:13:27;96045;;;19.78;58.87
2711;BME280;20721;47.402;8.550;2023-05-23T05:14:27;96046;;;19.79;58.93
2711;BME280;20721;47.402;8.550;2023-05-23T05:15:27;96044;;;19.81;58.89
2711;BME280;20721;47.402;8.550;2023-05-23T05:16:27;96041;;;19.84;58.79
2711;BME280;20721;47.402;8.550;2023-05-23T05:17:28;96042;;;19.86;58.80
2711;BME280;20721;47.402;8.550;2023-05-23T05:18:27;96045;;;19.88;58.60
2711;BME280;20721;47.402;8.550;2023-05-23T05:19:27;96045;;;19.90;58.53
2711;BME280;20721;47.402;8.550;2023-05-23T05:20:27;96044;;;19.93;58.60
2711;BME280;20721;47.402;8.550;2023-05-23T05:21:27;96047;;;19.97;58.60
2711;BME280;20721;47.402;8.550;2023-05-23T05:22:27;96050;;;20.00;58.61
2711;BME280;20721;47.402;8.550;2023-05-23T05:23:29;96046;;;20.03;58.68
2711;BME280;20721;47.402;8.550;2023-05-23T05:24:28;96042;;;20.07;58.44
2711;BME280;20721;47.402;8.550;2023-05-23T05:25:30;96046;;;20.11;58.36
2711;BME280;20721;47.402;8.550;2023-05-23T05:26:27;96042;;;20.14;58.05
2711;BME280;20721;47.402;8.550;2023-05-23T05:27:28;96043;;;20.16;58.08
2711;BME280;20721;47.402;8.550;2023-05-23T05:28:27;96040;;;20.18;58.05
2711;BME280;20721;47.402;8.550;2023-05-23T05:29:27;96040;;;20.22;57.77
2711;BME280;20721;47.402;8.550;2023-05-23T05:30:27;96045;;;20.25;57.68
2711;BME280;20721;47.402;8.550;2023-05-23T05:31:28;96042;;;20.28;57.78
2711;BME280;20721;47.402;8.550;2023-05-23T05:32:27;96045;;;20.33;57.65
2711;BME280;20721;47.402;8.550;2023-05-23T05:33:27;96042;;;20.42;57.40
2711;BME280;20721;47.402;8.550;2023-05-23T05:34:28;96042;;;20.48;57.36
2711;BME280;20721;47.402;8.550;2023-05-23T05:35:27;96038;;;20.55;57.26
2711;BME280;20721;47.402;8.550;2023-05-23T05:36:27;96041;;;20.63;57.11
2711;BME280;20721;47.402;8.550;2023-05-23T05:37:27;96045;;;20.72;56.55
2711;BME280;20721;47.402;8.550;2023-05-23T05:38:27;96042;;;20.79;56.35
2711;BME280;20721;47.402;8.550;2023-05-23T05:39:27;96040;;;20.85;56.36
2711;BME280;20721;47.402;8.550;2023-05-23T05:40:27;96046;;;20.94;56.31
2711;BME280;20721;47.402;8.550;2023-05-23T05:41:27;96043;;;21.04;55.57
2711;BME280;20721;47.402;8.550;2023-05-23T05:42:27;96042;;;21.09;55.08
2711;BME280;20721;47.402;8.550;2023-05-23T05:43:27;96043;;;21.01;55.22
2711;BME280;20721;47.402;8.550;2023-05-23T05:44:27;96046;;;21.00;55.21
2711;BME280;20721;47.402;8.550;2023-05-23T05:45:27;96042;;;21.08;55.18
2711;BME280;20721;47.402;8.550;2023-05-23T05:46:27;96044;;;21.15;55.00
2711;BME280;20721;47.402;8.550;2023-05-23T05:47:27;96044;;;21.22;55.00
2711;BME280;20721;47.402;8.550;2023-05-23T05:48:27;96048;;;21.31;54.53
2711;BME280;20721;47.402;8.550;2023-05-23T05:49:27;96045;;;21.42;54.36
2711;BME280;20721;47.402;8.550;2023-05-23T05:50:27;96047;;;21.52;54.01
2711;BME280;20721;47.402;8.550;2023-05-23T05:51:28;96047;;;21.60;53.73
2711;BME280;20721;47.402;8.550;2023-05-23T05:52:27;96049;;;21.70;53.67
2711;BME280;20721;47.402;8.550;2023-05-23T05:53:27;96046;;;21.77;53.38
2711;BME280;20721;47.402;8.550;2023-05-23T05:54:27;96047;;;21.82;53.28
2711;BME280;20721;47.402;8.550;2023-05-23T05:55:27;96047;;;21.86;52.75
2711;BME280;20721;47.402;8.550;2023-05-23T05:56:27;96050;;;21.87;52.24
2711;BME280;20721;47.402;8.550;2023-05-23T05:57:27;96052;;;21.88;52.46
2711;BME280;20721;47.402;8.550;2023-05-23T05:58:27;96050;;;21.91;52.51
2711;BME280;20721;47.402;8.550;2023-05-23T05:59:27;96054;;;21.98;52.61
2711;BME280;20721;47.402;8.550;2023-05-23T06:00:27;96059;;;22.06;52.70
2711;BME280;20721;47.402;8.550;2023-05-23T06:01:27;96059;;;22.12;52.34
2711;BME280;20721;47.402;8.550;2023-05-23T06:02:27;96059;;;22.18;52.39
2711;BME280;20721;47.402;8.550;2023-05-23T06:03:28;96057;;;22.24;51.86
2711;BME280;20721;47.402;8.550;2023-05-23T06:04:27;96056;;;22.29;52.16
2711;BME280;20721;47.402;8.550;2023-05-23T06:05:27;96059;;;22.34;51.59
2711;BME280;20721;47.402;8.550;2023-05-23T06:06:27;96060;;;22.39;51.54
2711;BME280;20721;47.402;8.550;2023-05-23T06:07:27;96058;;;22.47;51.74
2711;BME280;20721;47.402;8.550;2023-05-23T06:08:27;96061;;;22.55;51.61
2711;BME280;20721;47.402;8.550;2023-05-23T06:09:27;96066;;;22.60;51.10
2711;BME280;20721;47.402;8.550;2023-05-23T06:10:27;96067;;;22.66;51.33
2711;BME280;20721;47.402;8.550;2023-05-23T06:11:27;96066;;;22.71;51.05
2711;BME280;20721;47.402;8.550;2023-05-23T06:12:27;96068;;;22.76;51.09
2711;BME280;20721;47.402;8.550;2023-05-23T06:13:27;96068;;;22.79;50.69
2711;BME280;20721;47.402;8.550;2023-05-23T06:14:28;96066;;;22.82;50.49
2711;BME280;20721;47.402;8.550;2023-05-23T06:15:27;96069;;;22.90;50.39
2711;BME280;20721;47.402;8.550;2023-05-23T06:16:27;96073;;;23.01;50.45
2711;BME280;20721;47.402;8.550;2023-05-23T06:17:27;96071;;;23.10;50.27
2711;BME280;20721;47.402;8.550;2023-05-23T06:18:27;96074;;;23.20;50.16
2711;BME280;20721;47.402;8.550;2023-05-23T06:19:27;96076;;;23.33;49.94
2711;BME280;20721;47.402;8.550;2023-05-23T06:20:27;96071;;;23.43;49.78
2711;BME280;20721;47.402;8.550;2023-05-23T06:21:27;96071;;;23.53;49.27
2711;BME280;20721;47.402;8.550;2023-05-23T06:22:27;96072;;;23.62;49.25
2711;BME280;20721;47.402;8.550;2023-05-23T06:23:27;96071;;;23.72;49.24
2711;BME280;20721;47.402;8.550;2023-05-23T06:24:27;96069;;;23.79;48.85
2711;BME280;20721;47.402;8.550;2023-05-23T06:25:27;96069;;;23.87;48.69
2711;BME280;20721;47.402;8.550;2023-05-23T06:26:27;96069;;;23.93;48.45
2711;BME280;20721;47.402;8.550;2023-05-23T06:27:27;96065;;;23.99;48.65
2711;BME280;20721;47.402;8.550;2023-05-23T06:28:27;96066;;;24.02;47.98
2711;BME280;20721;47.402;8.550;2023-05-23T06:30:28;96064;;;24.16;47.98
2711;BME280;20721;47.402;8.550;2023-05-23T06:31:27;96065;;;24.23;48.09
2711;BME280;20721;47.402;8.550;2023-05-23T06:32:27;96070;;;24.33;47.66
2711;BME280;20721;47.402;8.550;2023-05-23T06:33:28;96072;;;24.41;47.51
2711;BME280;20721;47.402;8.550;2023-05-23T06:34:27;96070;;;24.48;47.47
2711;BME280;20721;47.402;8.550;2023-05-23T06:35:27;96076;;;24.55;47.21
2711;BME280;20721;47.402;8.550;2023-05-23T06:36:27;96073;;;24.62;46.79
2711;BME280;20721;47.402;8.550;2023-05-23T06:37:27;96078;;;24.68;46.88
2711;BME280;20721;47.402;8.550;2023-05-23T06:38:29;96074;;;24.73;46.64